aviador You're here:

KFUL Decoded Metar

FULLERTON in CA, USA
Report Time2017-11-24 01:53:00
UTC Time2017-11-24 02:06:31
Flight Rules vfr VFR
WindCalm
Visibility9999 m
Phenomena:N/A
Clouds:N/A
Expected CloudBase > 6,800 ft AGL from Temp-Dew spread
CeilingNone
Temp24°C (ISA +9)
Dew Point07°C (34% RH)
AAT23.3°C
QNH1013 hPa
Density Alt1,325 ft
Elevation115 ft
Report Wrong Elevation
Raw Report
METAR KFUL 240153Z 00000KT 10SM CLR 24/07 A2991 RMK AO2 SLP125 T02390072=

Extra information for KFUL:More info

Metar Taf Metar & Taf Last 4 Metars F.Rules Stats Wind Profile Meteogram Temp Stats Airport Information Weather charts Add Link Nearby VenuesMetar ALERT Operation Metar Decoded Social comments

AIRNAV info for KFUL